Lennep, Montana
Current Conditions -  °F | °C
As of 7:53 PM on Monday 26 Jan 2015 (Local Time) from KLVM Reporting Station
Clear Clear  
Wind Chill: 56°   Ceiling: Unl
Heat Index: 56°   Visibility: 10mi
Dew Point: 26°   Wind: 24mph
Humidity: 32%   Direction: 260°W
Pressure: 30.05"   Gusts: 31mph
Location:  46.4682°N, 110.512°W
Report Text: KLVM 270253Z AUTO 26021G27KT 10SM CLR 13/M03 A3005 RMK AO2 PK WND 28037/0237 SLP157 T01331033 50001
Loading
Personal Weather Stations






























Interactive Weather Map New forecast layout! Learn more

10-Day Weather Forecast

Advertisements
Track Severe Weather on mobile